Louis Armstrong New Orleans International Airport
KMSY : now visible

Airfield :











YOU CAN JOIN US ON...

 
LOGIN :

Register | Disclaimer

   EN    FR    IT 

 









Legend :    VFR   Marginal VFR   IFR   Intensive IFR   Very Intensive IFR
Visi :
Ceiling :
>= 8 km
>= 3000ft
5 to 8 km
1000 to 3000 ft
1500m to 5 km
500 to 1000 ft
800 to 1500m
200 to 500 ft
< 800m
< 200 ft
Symbols :   Thunderstorms  Fog  Heavy snow  Heavy precipitations  Wind > 20 kt






- Airport Elevation : 4 ft
- IATA code : MSY


KMSY - Louis Armstrong New Orleans International

CURRENT METAR :
  • 041953Z 31007KT 10SM SCT060 36/22 A2995 RMK AO2 SLP146 T03610217

EXPIRED METARs :
  • 041853Z 30012KT 10SM SCT055 SCT075 36/22 A2996 RMK AO2 SLP150 T03610217
  • 041753Z 24009KT 10SM SCT049 SCT075 34/22 A2998 RMK AO2 SLP156 T03440222 10350 20256 58004

TAF KMSY
Valid from the 04 at 18:00 until the 06 at 00:00 UTC


041735Z 0418/0524 25007KT P6SM SCT040 BKN070
FM042200 32007KT P6SM FEW250
FM051700 35005KT P6SM FEW100
FM052100 32005KT P6SM FEW050
KZHU FIR / North America



MET'MAP, your aeronautical weather chart ! - Copyright ORBIFLY December 2007 - Disclaimer

ORBIFLY MET'MAP TEAM :

Programming & Development : Alexandra Zaïnal
Concept & original design : Baudouin d'Aumeries
Assistance for programming : Marc-Olivier Méhu
Technical & hardware support : Manuel Goepfert

Contact : metmap@orbifly.com




SOURCES & CREDITS :

   NOAA       Earth
Advisory